sensor_id;sensor_type;location;lat;lon;timestamp;temperature;humidity
61412;DHT22;47278;49.732;7.690;2024-01-16T00:01:15;-1.10;99.90
61412;DHT22;47278;49.732;7.690;2024-01-16T00:03:43;-1.10;99.90
61412;DHT22;47278;49.732;7.690;2024-01-16T00:06:09;-1.10;99.90
61412;DHT22;47278;49.732;7.690;2024-01-16T00:08:35;-1.10;99.90
61412;DHT22;47278;49.732;7.690;2024-01-16T00:11:02;-1.10;99.90
61412;DHT22;47278;49.732;7.690;2024-01-16T00:13:27;-1.10;99.90
61412;DHT22;47278;49.732;7.690;2024-01-16T00:15:53;-1.10;99.90
61412;DHT22;47278;49.732;7.690;2024-01-16T00:18:19;-1.10;99.90
61412;DHT22;47278;49.732;7.690;2024-01-16T00:20:46;-1.00;99.90
61412;DHT22;47278;49.732;7.690;2024-01-16T00:23:11;-1.10;99.90
61412;DHT22;47278;49.732;7.690;2024-01-16T00:25:38;-1.10;99.90
61412;DHT22;47278;49.732;7.690;2024-01-16T00:28:03;-1.10;99.90
61412;DHT22;47278;49.732;7.690;2024-01-16T00:30:29;-1.10;99.90
61412;DHT22;47278;49.732;7.690;2024-01-16T00:32:55;-1.00;99.90
61412;DHT22;47278;49.732;7.690;2024-01-16T00:35:22;-1.00;99.90
61412;DHT22;47278;49.732;7.690;2024-01-16T00:37:48;-0.80;99.90
61412;DHT22;47278;49.732;7.690;2024-01-16T00:40:13;-0.80;99.90
61412;DHT22;47278;49.732;7.690;2024-01-16T00:42:39;-0.80;99.90
61412;DHT22;47278;49.732;7.690;2024-01-16T00:45:04;-0.70;99.90
61412;DHT22;47278;49.732;7.690;2024-01-16T00:47:30;-0.70;99.90
61412;DHT22;47278;49.732;7.690;2024-01-16T00:49:56;-0.70;99.90
61412;DHT22;47278;49.732;7.690;2024-01-16T00:52:21;-0.70;99.90
61412;DHT22;47278;49.732;7.690;2024-01-16T00:54:48;-0.70;99.90
61412;DHT22;47278;49.732;7.690;2024-01-16T00:57:15;-0.70;99.90
61412;DHT22;47278;49.732;7.690;2024-01-16T00:59:41;-0.70;99.90
61412;DHT22;47278;49.732;7.690;2024-01-16T01:02:07;-0.80;99.90
61412;DHT22;47278;49.732;7.690;2024-01-16T01:04:35;-0.90;99.90
61412;DHT22;47278;49.732;7.690;2024-01-16T01:07:02;-0.90;99.90
61412;DHT22;47278;49.732;7.690;2024-01-16T01:09:27;-0.90;99.90
61412;DHT22;47278;49.732;7.690;2024-01-16T01:11:54;-0.90;99.90
61412;DHT22;47278;49.732;7.690;2024-01-16T01:14:20;-0.90;99.90
61412;DHT22;47278;49.732;7.690;2024-01-16T01:16:45;-0.90;99.90
61412;DHT22;47278;49.732;7.690;2024-01-16T01:19:11;-0.90;99.90
61412;DHT22;47278;49.732;7.690;2024-01-16T01:21:38;-1.00;99.90
61412;DHT22;47278;49.732;7.690;2024-01-16T01:24:03;-1.00;99.90
61412;DHT22;47278;49.732;7.690;2024-01-16T01:26:30;-1.10;99.90
61412;DHT22;47278;49.732;7.690;2024-01-16T01:28:55;-1.10;99.90
61412;DHT22;47278;49.732;7.690;2024-01-16T01:31:22;-1.10;99.90
61412;DHT22;47278;49.732;7.690;2024-01-16T01:33:48;-1.20;99.90
61412;DHT22;47278;49.732;7.690;2024-01-16T01:36:13;-1.30;99.90
61412;DHT22;47278;49.732;7.690;2024-01-16T01:38:39;-1.30;99.90
61412;DHT22;47278;49.732;7.690;2024-01-16T01:41:04;-1.30;99.90
61412;DHT22;47278;49.732;7.690;2024-01-16T01:43:31;-1.40;99.90
61412;DHT22;47278;49.732;7.690;2024-01-16T01:46:06;-1.50;99.90
61412;DHT22;47278;49.732;7.690;2024-01-16T01:48:33;-1.60;99.90
61412;DHT22;47278;49.732;7.690;2024-01-16T01:51:00;-1.70;99.90
61412;DHT22;47278;49.732;7.690;2024-01-16T01:53:26;-1.70;99.90
61412;DHT22;47278;49.732;7.690;2024-01-16T01:55:52;-1.90;99.90
61412;DHT22;47278;49.732;7.690;2024-01-16T01:58:18;-2.10;99.90
61412;DHT22;47278;49.732;7.690;2024-01-16T02:00:43;-2.20;99.90
61412;DHT22;47278;49.732;7.690;2024-01-16T02:03:10;-2.30;99.90
61412;DHT22;47278;49.732;7.690;2024-01-16T02:05:36;-2.40;99.90
61412;DHT22;47278;49.732;7.690;2024-01-16T02:08:04;-2.40;99.90
61412;DHT22;47278;49.732;7.690;2024-01-16T02:10:30;-2.50;99.90
61412;DHT22;47278;49.732;7.690;2024-01-16T02:12:57;-2.40;99.90
61412;DHT22;47278;49.732;7.690;2024-01-16T02:15:23;-2.50;99.90
61412;DHT22;47278;49.732;7.690;2024-01-16T02:17:50;-2.50;99.90
61412;DHT22;47278;49.732;7.690;2024-01-16T02:20:16;-2.60;99.90
61412;DHT22;47278;49.732;7.690;2024-01-16T02:22:43;-2.40;99.90
61412;DHT22;47278;49.732;7.690;2024-01-16T02:25:11;-2.40;99.90
61412;DHT22;47278;49.732;7.690;2024-01-16T02:27:38;-2.20;99.90
61412;DHT22;47278;49.732;7.690;2024-01-16T02:30:03;-2.50;99.90
61412;DHT22;47278;49.732;7.690;2024-01-16T02:32:31;-2.40;99.90
61412;DHT22;47278;49.732;7.690;2024-01-16T02:34:57;-3.10;99.90
61412;DHT22;47278;49.732;7.690;2024-01-16T02:37:24;-2.60;99.90
61412;DHT22;47278;49.732;7.690;2024-01-16T02:39:50;-2.60;99.90
61412;DHT22;47278;49.732;7.690;2024-01-16T02:42:15;-1.40;99.90
61412;DHT22;47278;49.732;7.690;2024-01-16T02:44:41;-2.60;99.90
61412;DHT22;47278;49.732;7.690;2024-01-16T02:47:08;-2.60;99.90
61412;DHT22;47278;49.732;7.690;2024-01-16T02:49:34;-2.50;99.90
61412;DHT22;47278;49.732;7.690;2024-01-16T02:52:02;-2.40;99.90
61412;DHT22;47278;49.732;7.690;2024-01-16T02:54:27;-2.30;99.90
61412;DHT22;47278;49.732;7.690;2024-01-16T02:56:53;-2.20;99.90
61412;DHT22;47278;49.732;7.690;2024-01-16T02:59:19;-2.20;99.90
61412;DHT22;47278;49.732;7.690;2024-01-16T03:01:45;-2.30;99.90
61412;DHT22;47278;49.732;7.690;2024-01-16T03:04:12;-2.50;99.90
61412;DHT22;47278;49.732;7.690;2024-01-16T03:06:37;-2.70;99.90
61412;DHT22;47278;49.732;7.690;2024-01-16T03:09:03;-2.90;99.90
61412;DHT22;47278;49.732;7.690;2024-01-16T03:11:29;-2.90;99.90
61412;DHT22;47278;49.732;7.690;2024-01-16T03:13:57;-2.90;99.90
61412;DHT22;47278;49.732;7.690;2024-01-16T03:16:22;-2.80;99.90
61412;DHT22;47278;49.732;7.690;2024-01-16T03:18:48;-2.80;99.90
61412;DHT22;47278;49.732;7.690;2024-01-16T03:21:14;-2.80;99.90
61412;DHT22;47278;49.732;7.690;2024-01-16T03:23:39;-2.80;99.90
61412;DHT22;47278;49.732;7.690;2024-01-16T03:26:05;-2.80;99.90
61412;DHT22;47278;49.732;7.690;2024-01-16T03:28:32;-2.90;99.90
61412;DHT22;47278;49.732;7.690;2024-01-16T03:30:58;-2.90;99.90
61412;DHT22;47278;49.732;7.690;2024-01-16T03:33:24;-3.00;99.90
61412;DHT22;47278;49.732;7.690;2024-01-16T03:35:50;-3.00;99.90
61412;DHT22;47278;49.732;7.690;2024-01-16T03:38:16;-3.00;99.90
61412;DHT22;47278;49.732;7.690;2024-01-16T03:40:42;-3.00;99.90
61412;DHT22;47278;49.732;7.690;2024-01-16T03:43:07;-3.00;99.90
61412;DHT22;47278;49.732;7.690;2024-01-16T03:45:34;-3.00;99.90
61412;DHT22;47278;49.732;7.690;2024-01-16T03:48:01;-3.10;99.90
61412;DHT22;47278;49.732;7.690;2024-01-16T03:50:28;-2.60;99.90
61412;DHT22;47278;49.732;7.690;2024-01-16T03:52:53;-3.00;99.90
61412;DHT22;47278;49.732;7.690;2024-01-16T03:55:20;-3.10;99.90
61412;DHT22;47278;49.732;7.690;2024-01-16T03:57:46;-3.20;99.90
61412;DHT22;47278;49.732;7.690;2024-01-16T04:00:12;-3.10;99.90
61412;DHT22;47278;49.732;7.690;2024-01-16T04:02:40;-3.20;99.90
61412;DHT22;47278;49.732;7.690;2024-01-16T04:05:06;-3.20;99.90
61412;DHT22;47278;49.732;7.690;2024-01-16T04:07:32;-3.10;99.90
61412;DHT22;47278;49.732;7.690;2024-01-16T04:09:58;-3.00;99.90
61412;DHT22;47278;49.732;7.690;2024-01-16T04:12:23;-3.10;99.90
61412;DHT22;47278;49.732;7.690;2024-01-16T04:14:49;-3.10;99.90
61412;DHT22;47278;49.732;7.690;2024-01-16T04:17:16;-3.20;99.90
61412;DHT22;47278;49.732;7.690;2024-01-16T04:19:42;-3.20;99.90
61412;DHT22;47278;49.732;7.690;2024-01-16T04:22:08;-3.30;99.90
61412;DHT22;47278;49.732;7.690;2024-01-16T04:24:34;-3.40;99.90
61412;DHT22;47278;49.732;7.690;2024-01-16T04:27:00;-3.30;99.90
61412;DHT22;47278;49.732;7.690;2024-01-16T04:29:25;-3.20;99.90
61412;DHT22;47278;49.732;7.690;2024-01-16T04:31:52;-3.10;99.90
61412;DHT22;47278;49.732;7.690;2024-01-16T04:34:18;-2.90;99.90
61412;DHT22;47278;49.732;7.690;2024-01-16T04:36:44;-2.70;99.90
61412;DHT22;47278;49.732;7.690;2024-01-16T04:39:10;-2.80;99.90
61412;DHT22;47278;49.732;7.690;2024-01-16T04:41:36;-2.70;99.90
61412;DHT22;47278;49.732;7.690;2024-01-16T04:44:02;-2.80;99.90
61412;DHT22;47278;49.732;7.690;2024-01-16T04:46:28;-3.10;99.90
61412;DHT22;47278;49.732;7.690;2024-01-16T04:48:54;-3.20;99.90
61412;DHT22;47278;49.732;7.690;2024-01-16T04:51:20;-3.10;99.90
61412;DHT22;47278;49.732;7.690;2024-01-16T04:53:46;-2.90;99.90
61412;DHT22;47278;49.732;7.690;2024-01-16T04:56:12;-2.90;99.90
61412;DHT22;47278;49.732;7.690;2024-01-16T04:58:38;-3.00;99.90
61412;DHT22;47278;49.732;7.690;2024-01-16T05:01:04;-3.00;99.90
61412;DHT22;47278;49.732;7.690;2024-01-16T05:03:30;-3.10;99.90
61412;DHT22;47278;49.732;7.690;2024-01-16T05:05:56;-3.00;99.90
61412;DHT22;47278;49.732;7.690;2024-01-16T05:08:22;-3.00;99.90
61412;DHT22;47278;49.732;7.690;2024-01-16T05:10:48;-2.90;99.90
61412;DHT22;47278;49.732;7.690;2024-01-16T05:13:13;-2.90;99.90
61412;DHT22;47278;49.732;7.690;2024-01-16T05:15:40;-2.90;99.90
61412;DHT22;47278;49.732;7.690;2024-01-16T05:18:06;-2.80;99.90
61412;DHT22;47278;49.732;7.690;2024-01-16T05:20:32;-2.80;99.90
61412;DHT22;47278;49.732;7.690;2024-01-16T05:22:58;-3.00;99.90
61412;DHT22;47278;49.732;7.690;2024-01-16T05:25:23;-3.10;99.90
61412;DHT22;47278;49.732;7.690;2024-01-16T05:27:50;-3.20;99.90
61412;DHT22;47278;49.732;7.690;2024-01-16T05:30:16;-3.40;99.90
61412;DHT22;47278;49.732;7.690;2024-01-16T05:32:42;-3.30;99.90
61412;DHT22;47278;49.732;7.690;2024-01-16T05:35:08;-3.50;99.90
61412;DHT22;47278;49.732;7.690;2024-01-16T05:37:35;-3.70;99.90
61412;DHT22;47278;49.732;7.690;2024-01-16T05:40:01;-3.80;99.90
61412;DHT22;47278;49.732;7.690;2024-01-16T05:42:28;-3.80;99.90
61412;DHT22;47278;49.732;7.690;2024-01-16T05:44:54;-3.80;99.90
61412;DHT22;47278;49.732;7.690;2024-01-16T05:47:20;-3.90;99.90
61412;DHT22;47278;49.732;7.690;2024-01-16T05:49:49;-3.90;99.90
61412;DHT22;47278;49.732;7.690;2024-01-16T05:52:16;-3.90;99.90
61412;DHT22;47278;49.732;7.690;2024-01-16T05:54:42;-4.00;99.90
61412;DHT22;47278;49.732;7.690;2024-01-16T05:57:08;-4.00;99.90
61412;DHT22;47278;49.732;7.690;2024-01-16T05:59:34;-4.10;99.90
61412;DHT22;47278;49.732;7.690;2024-01-16T06:02:00;-4.00;99.90
61412;DHT22;47278;49.732;7.690;2024-01-16T06:04:26;-4.00;99.90
61412;DHT22;47278;49.732;7.690;2024-01-16T06:06:52;-4.00;99.90
61412;DHT22;47278;49.732;7.690;2024-01-16T06:09:18;-4.10;99.90
61412;DHT22;47278;49.732;7.690;2024-01-16T06:11:44;-4.10;99.90
61412;DHT22;47278;49.732;7.690;2024-01-16T06:14:10;-4.20;99.90
61412;DHT22;47278;49.732;7.690;2024-01-16T06:16:37;-4.20;99.90
61412;DHT22;47278;49.732;7.690;2024-01-16T06:19:03;-4.10;99.90
61412;DHT22;47278;49.732;7.690;2024-01-16T06:21:28;-3.90;99.90
61412;DHT22;47278;49.732;7.690;2024-01-16T06:23:54;-3.90;99.90
61412;DHT22;47278;49.732;7.690;2024-01-16T06:26:20;-3.90;99.90
61412;DHT22;47278;49.732;7.690;2024-01-16T06:28:46;-4.10;99.90
61412;DHT22;47278;49.732;7.690;2024-01-16T06:31:12;-4.10;99.90
61412;DHT22;47278;49.732;7.690;2024-01-16T06:33:38;-4.00;99.90
61412;DHT22;47278;49.732;7.690;2024-01-16T06:36:04;-3.80;99.90
61412;DHT22;47278;49.732;7.690;2024-01-16T06:38:30;-3.90;99.90
61412;DHT22;47278;49.732;7.690;2024-01-16T06:40:56;-3.90;99.90
61412;DHT22;47278;49.732;7.690;2024-01-16T06:43:22;-3.90;99.90
61412;DHT22;47278;49.732;7.690;2024-01-16T06:45:48;-3.90;99.90
61412;DHT22;47278;49.732;7.690;2024-01-16T06:48:14;-3.90;99.90
61412;DHT22;47278;49.732;7.690;2024-01-16T06:50:40;-2.60;99.90
61412;DHT22;47278;49.732;7.690;2024-01-16T06:53:06;-3.20;99.90
61412;DHT22;47278;49.732;7.690;2024-01-16T06:55:32;-3.20;99.90
61412;DHT22;47278;49.732;7.690;2024-01-16T06:57:58;-3.30;99.90
61412;DHT22;47278;49.732;7.690;2024-01-16T07:00:24;-3.40;99.90
61412;DHT22;47278;49.732;7.690;2024-01-16T07:02:52;-3.60;99.90
61412;DHT22;47278;49.732;7.690;2024-01-16T07:05:19;-3.60;99.90
61412;DHT22;47278;49.732;7.690;2024-01-16T07:07:47;-3.60;99.90
61412;DHT22;47278;49.732;7.690;2024-01-16T07:10:12;-3.60;99.90
61412;DHT22;47278;49.732;7.690;2024-01-16T07:12:43;-3.60;99.90
61412;DHT22;47278;49.732;7.690;2024-01-16T07:15:10;-3.60;99.90
61412;DHT22;47278;49.732;7.690;2024-01-16T07:17:36;-3.60;99.90
61412;DHT22;47278;49.732;7.690;2024-01-16T07:20:02;-3.50;99.90
61412;DHT22;47278;49.732;7.690;2024-01-16T07:22:28;-3.50;99.90
61412;DHT22;47278;49.732;7.690;2024-01-16T07:24:54;-3.50;99.90
61412;DHT22;47278;49.732;7.690;2024-01-16T07:27:20;-3.60;99.90
61412;DHT22;47278;49.732;7.690;2024-01-16T07:29:46;-3.70;99.90
61412;DHT22;47278;49.732;7.690;2024-01-16T07:32:12;-3.70;99.90
61412;DHT22;47278;49.732;7.690;2024-01-16T07:34:38;-3.50;99.90
61412;DHT22;47278;49.732;7.690;2024-01-16T07:37:04;-3.70;99.90
61412;DHT22;47278;49.732;7.690;2024-01-16T07:39:30;-3.60;99.90
61412;DHT22;47278;49.732;7.690;2024-01-16T07:41:56;-3.60;99.90
61412;DHT22;47278;49.732;7.690;2024-01-16T07:44:22;-3.50;99.90
61412;DHT22;47278;49.732;7.690;2024-01-16T07:46:48;-3.60;99.90
61412;DHT22;47278;49.732;7.690;2024-01-16T07:49:15;-3.60;99.90
61412;DHT22;47278;49.732;7.690;2024-01-16T07:51:41;-3.60;99.90
61412;DHT22;47278;49.732;7.690;2024-01-16T07:54:09;-3.60;99.90
61412;DHT22;47278;49.732;7.690;2024-01-16T07:56:36;-3.50;99.90
61412;DHT22;47278;49.732;7.690;2024-01-16T07:59:03;-3.60;99.90
61412;DHT22;47278;49.732;7.690;2024-01-16T08:01:28;-3.60;99.90
61412;DHT22;47278;49.732;7.690;2024-01-16T08:03:54;-3.60;99.90
61412;DHT22;47278;49.732;7.690;2024-01-16T08:06:20;-3.50;99.90
61412;DHT22;47278;49.732;7.690;2024-01-16T08:08:47;-3.40;99.90
61412;DHT22;47278;49.732;7.690;2024-01-16T08:11:12;-3.30;99.90
61412;DHT22;47278;49.732;7.690;2024-01-16T08:13:38;-3.20;99.90
61412;DHT22;47278;49.732;7.690;2024-01-16T08:16:04;-2.80;99.90
61412;DHT22;47278;49.732;7.690;2024-01-16T08:18:32;-3.10;99.90
61412;DHT22;47278;49.732;7.690;2024-01-16T08:20:58;-3.10;99.90
61412;DHT22;47278;49.732;7.690;2024-01-16T08:23:24;-3.00;99.90
61412;DHT22;47278;49.732;7.690;2024-01-16T08:25:50;-2.90;99.90
61412;DHT22;47278;49.732;7.690;2024-01-16T08:28:17;-3.00;99.90
61412;DHT22;47278;49.732;7.690;2024-01-16T08:30:43;-2.90;99.90
61412;DHT22;47278;49.732;7.690;2024-01-16T08:33:09;-2.80;99.90
61412;DHT22;47278;49.732;7.690;2024-01-16T08:35:36;-2.90;99.90
61412;DHT22;47278;49.732;7.690;2024-01-16T08:38:02;-2.90;99.90
61412;DHT22;47278;49.732;7.690;2024-01-16T08:40:28;-2.90;99.90
61412;DHT22;47278;49.732;7.690;2024-01-16T08:42:54;-2.70;99.90
61412;DHT22;47278;49.732;7.690;2024-01-16T08:45:22;-2.70;99.90
61412;DHT22;47278;49.732;7.690;2024-01-16T08:47:48;-2.70;99.90
61412;DHT22;47278;49.732;7.690;2024-01-16T08:50:17;-2.60;99.90
61412;DHT22;47278;49.732;7.690;2024-01-16T08:52:44;-2.40;99.90
61412;DHT22;47278;49.732;7.690;2024-01-16T08:55:10;-2.60;99.90
61412;DHT22;47278;49.732;7.690;2024-01-16T08:57:39;-2.50;99.90
61412;DHT22;47278;49.732;7.690;2024-01-16T09:00:05;-2.40;99.90
61412;DHT22;47278;49.732;7.690;2024-01-16T09:02:30;-2.40;99.90
61412;DHT22;47278;49.732;7.690;2024-01-16T09:04:57;-2.30;99.90
61412;DHT22;47278;49.732;7.690;2024-01-16T09:07:24;-2.20;99.90
61412;DHT22;47278;49.732;7.690;2024-01-16T09:09:49;-2.20;99.90
61412;DHT22;47278;49.732;7.690;2024-01-16T09:12:15;-2.10;99.90
61412;DHT22;47278;49.732;7.690;2024-01-16T09:14:41;-2.00;99.90
61412;DHT22;47278;49.732;7.690;2024-01-16T09:17:06;-1.90;99.90
61412;DHT22;47278;49.732;7.690;2024-01-16T09:19:32;-1.80;99.90
61412;DHT22;47278;49.732;7.690;2024-01-16T09:21:58;-1.80;99.90
61412;DHT22;47278;49.732;7.690;2024-01-16T09:24:24;-1.60;99.90
61412;DHT22;47278;49.732;7.690;2024-01-16T09:26:50;-1.50;99.90
61412;DHT22;47278;49.732;7.690;2024-01-16T09:29:16;-1.40;99.90
61412;DHT22;47278;49.732;7.690;2024-01-16T09:31:42;-1.20;99.90
61412;DHT22;47278;49.732;7.690;2024-01-16T09:34:08;-1.20;99.90
61412;DHT22;47278;49.732;7.690;2024-01-16T09:36:34;-1.10;99.90
61412;DHT22;47278;49.732;7.690;2024-01-16T09:39:04;-1.00;99.90
61412;DHT22;47278;49.732;7.690;2024-01-16T09:41:33;-1.00;99.90
61412;DHT22;47278;49.732;7.690;2024-01-16T09:44:00;-1.00;99.90
61412;DHT22;47278;49.732;7.690;2024-01-16T09:46:26;-0.90;99.90
61412;DHT22;47278;49.732;7.690;2024-01-16T09:48:54;-0.80;99.90
61412;DHT22;47278;49.732;7.690;2024-01-16T09:51:20;-0.80;99.90
61412;DHT22;47278;49.732;7.690;2024-01-16T09:53:46;-0.70;99.90
61412;DHT22;47278;49.732;7.690;2024-01-16T09:56:15;-0.70;99.90
61412;DHT22;47278;49.732;7.690;2024-01-16T09:58:45;-0.70;99.90
61412;DHT22;47278;49.732;7.690;2024-01-16T10:01:12;-0.60;99.90
61412;DHT22;47278;49.732;7.690;2024-01-16T10:03:38;-0.50;99.90
61412;DHT22;47278;49.732;7.690;2024-01-16T10:06:05;-0.40;99.90
61412;DHT22;47278;49.732;7.690;2024-01-16T10:08:32;2.00;99.90
61412;DHT22;47278;49.732;7.690;2024-01-16T10:10:59;-0.40;99.90
61412;DHT22;47278;49.732;7.690;2024-01-16T10:13:25;-0.30;99.90
61412;DHT22;47278;49.732;7.690;2024-01-16T10:15:52;-0.30;99.90
61412;DHT22;47278;49.732;7.690;2024-01-16T10:18:27;-0.30;99.90
61412;DHT22;47278;49.732;7.690;2024-01-16T10:20:53;-0.20;99.90
61412;DHT22;47278;49.732;7.690;2024-01-16T10:23:22;-0.20;99.90
61412;DHT22;47278;49.732;7.690;2024-01-16T10:26:04;-0.20;99.90
61412;DHT22;47278;49.732;7.690;2024-01-16T10:28:30;-0.10;99.90
61412;DHT22;47278;49.732;7.690;2024-01-16T10:31:04;-0.10;99.90
61412;DHT22;47278;49.732;7.690;2024-01-16T10:33:30;0.00;99.90
61412;DHT22;47278;49.732;7.690;2024-01-16T10:38:39;0.20;99.90
61412;DHT22;47278;49.732;7.690;2024-01-16T10:41:15;0.30;99.90
61412;DHT22;47278;49.732;7.690;2024-01-16T10:43:42;0.40;99.90
61412;DHT22;47278;49.732;7.690;2024-01-16T10:46:10;0.40;99.90
61412;DHT22;47278;49.732;7.690;2024-01-16T10:48:37;0.70;99.90
61412;DHT22;47278;49.732;7.690;2024-01-16T10:51:05;0.60;99.90
61412;DHT22;47278;49.732;7.690;2024-01-16T10:53:32;0.70;99.90
61412;DHT22;47278;49.732;7.690;2024-01-16T10:55:59;0.60;99.90
61412;DHT22;47278;49.732;7.690;2024-01-16T10:58:25;0.60;99.90
61412;DHT22;47278;49.732;7.690;2024-01-16T11:00:56;0.60;99.90
61412;DHT22;47278;49.732;7.690;2024-01-16T11:05:48;0.80;99.90
61412;DHT22;47278;49.732;7.690;2024-01-16T11:08:13;1.10;99.90
61412;DHT22;47278;49.732;7.690;2024-01-16T11:10:42;1.00;99.90
61412;DHT22;47278;49.732;7.690;2024-01-16T11:13:08;1.00;99.90
61412;DHT22;47278;49.732;7.690;2024-01-16T11:15:35;1.30;99.90
61412;DHT22;47278;49.732;7.690;2024-01-16T11:18:04;1.20;99.90
61412;DHT22;47278;49.732;7.690;2024-01-16T11:20:32;1.30;99.90
61412;DHT22;47278;49.732;7.690;2024-01-16T11:23:00;1.20;99.90
61412;DHT22;47278;49.732;7.690;2024-01-16T11:25:32;1.20;99.90
61412;DHT22;47278;49.732;7.690;2024-01-16T11:28:11;1.30;99.90
61412;DHT22;47278;49.732;7.690;2024-01-16T11:30:39;1.30;99.90
61412;DHT22;47278;49.732;7.690;2024-01-16T11:33:05;1.50;99.90
61412;DHT22;47278;49.732;7.690;2024-01-16T11:35:33;1.40;99.90
61412;DHT22;47278;49.732;7.690;2024-01-16T11:38:11;2.40;99.90
61412;DHT22;47278;49.732;7.690;2024-01-16T11:40:39;1.40;99.90
61412;DHT22;47278;49.732;7.690;2024-01-16T11:45:49;1.70;99.90
61412;DHT22;47278;49.732;7.690;2024-01-16T11:48:16;1.80;99.90
61412;DHT22;47278;49.732;7.690;2024-01-16T11:50:42;3.30;99.90
61412;DHT22;47278;49.732;7.690;2024-01-16T11:53:08;2.50;99.90
61412;DHT22;47278;49.732;7.690;2024-01-16T11:55:35;2.70;99.90
61412;DHT22;47278;49.732;7.690;2024-01-16T12:00:47;2.80;99.90
61412;DHT22;47278;49.732;7.690;2024-01-16T12:03:17;3.30;99.90
61412;DHT22;47278;49.732;7.690;2024-01-16T12:05:43;2.90;99.90
61412;DHT22;47278;49.732;7.690;2024-01-16T12:08:10;3.10;99.90
61412;DHT22;47278;49.732;7.690;2024-01-16T12:10:45;3.40;99.90
61412;DHT22;47278;49.732;7.690;2024-01-16T12:13:11;3.60;99.90
61412;DHT22;47278;49.732;7.690;2024-01-16T12:15:37;3.30;99.90
61412;DHT22;47278;49.732;7.690;2024-01-16T12:18:03;3.40;99.90
61412;DHT22;47278;49.732;7.690;2024-01-16T12:20:32;3.40;99.90
61412;DHT22;47278;49.732;7.690;2024-01-16T12:25:27;3.60;99.90
61412;DHT22;47278;49.732;7.690;2024-01-16T12:27:59;4.30;99.90
61412;DHT22;47278;49.732;7.690;2024-01-16T12:30:27;4.30;99.90
61412;DHT22;47278;49.732;7.690;2024-01-16T12:35:28;4.30;99.90
61412;DHT22;47278;49.732;7.690;2024-01-16T12:38:01;4.20;99.90
61412;DHT22;47278;49.732;7.690;2024-01-16T12:40:27;4.30;99.90
61412;DHT22;47278;49.732;7.690;2024-01-16T12:42:52;4.60;99.90
61412;DHT22;47278;49.732;7.690;2024-01-16T12:45:18;4.80;99.90
61412;DHT22;47278;49.732;7.690;2024-01-16T12:47:44;4.50;99.90
61412;DHT22;47278;49.732;7.690;2024-01-16T12:50:19;4.70;99.90
61412;DHT22;47278;49.732;7.690;2024-01-16T12:52:44;4.60;99.90
61412;DHT22;47278;49.732;7.690;2024-01-16T12:55:10;4.20;99.90
61412;DHT22;47278;49.732;7.690;2024-01-16T12:57:39;4.50;99.90
61412;DHT22;47278;49.732;7.690;2024-01-16T13:02:51;5.20;99.90
61412;DHT22;47278;49.732;7.690;2024-01-16T13:05:18;4.50;99.90
61412;DHT22;47278;49.732;7.690;2024-01-16T13:07:43;4.70;99.90
61412;DHT22;47278;49.732;7.690;2024-01-16T13:10:09;4.70;99.90
61412;DHT22;47278;49.732;7.690;2024-01-16T13:12:37;5.10;99.90
61412;DHT22;47278;49.732;7.690;2024-01-16T13:15:03;5.10;99.90
61412;DHT22;47278;49.732;7.690;2024-01-16T13:17:34;4.40;99.90
61412;DHT22;47278;49.732;7.690;2024-01-16T13:20:01;4.40;99.90
61412;DHT22;47278;49.732;7.690;2024-01-16T13:22:26;4.70;99.90
61412;DHT22;47278;49.732;7.690;2024-01-16T13:24:52;5.20;99.90
61412;DHT22;47278;49.732;7.690;2024-01-16T13:27:18;5.10;99.90
61412;DHT22;47278;49.732;7.690;2024-01-16T13:29:44;4.90;99.90
61412;DHT22;47278;49.732;7.690;2024-01-16T13:32:10;5.10;99.90
61412;DHT22;47278;49.732;7.690;2024-01-16T13:34:36;4.60;99.90
61412;DHT22;47278;49.732;7.690;2024-01-16T13:37:03;4.00;99.90
61412;DHT22;47278;49.732;7.690;2024-01-16T13:39:29;4.10;99.90
61412;DHT22;47278;49.732;7.690;2024-01-16T13:42:03;4.40;99.90
61412;DHT22;47278;49.732;7.690;2024-01-16T13:44:32;4.10;99.90
61412;DHT22;47278;49.732;7.690;2024-01-16T13:46:58;3.90;99.90
61412;DHT22;47278;49.732;7.690;2024-01-16T13:49:23;4.10;99.90
61412;DHT22;47278;49.732;7.690;2024-01-16T13:51:49;3.90;99.90
61412;DHT22;47278;49.732;7.690;2024-01-16T13:54:15;4.20;99.90
61412;DHT22;47278;49.732;7.690;2024-01-16T13:56:40;5.30;99.90
61412;DHT22;47278;49.732;7.690;2024-01-16T13:59:06;4.40;99.90
61412;DHT22;47278;49.732;7.690;2024-01-16T14:01:32;4.80;99.90
61412;DHT22;47278;49.732;7.690;2024-01-16T14:03:58;4.70;99.90
61412;DHT22;47278;49.732;7.690;2024-01-16T14:06:24;5.80;99.90
61412;DHT22;47278;49.732;7.690;2024-01-16T14:08:50;4.90;99.90
61412;DHT22;47278;49.732;7.690;2024-01-16T14:11:16;5.10;99.90
61412;DHT22;47278;49.732;7.690;2024-01-16T14:13:42;5.30;99.90
61412;DHT22;47278;49.732;7.690;2024-01-16T14:16:09;4.80;99.90
61412;DHT22;47278;49.732;7.690;2024-01-16T14:18:34;4.60;99.90
61412;DHT22;47278;49.732;7.690;2024-01-16T14:21:01;4.50;99.90
61412;DHT22;47278;49.732;7.690;2024-01-16T14:23:29;5.50;99.90
61412;DHT22;47278;49.732;7.690;2024-01-16T14:25:57;6.40;99.90
61412;DHT22;47278;49.732;7.690;2024-01-16T14:28:22;6.90;99.90
61412;DHT22;47278;49.732;7.690;2024-01-16T14:30:51;6.50;99.90
61412;DHT22;47278;49.732;7.690;2024-01-16T14:33:17;4.80;99.90
61412;DHT22;47278;49.732;7.690;2024-01-16T14:35:43;3.90;99.90
61412;DHT22;47278;49.732;7.690;2024-01-16T14:38:09;3.70;99.90
61412;DHT22;47278;49.732;7.690;2024-01-16T14:40:37;3.90;99.90
61412;DHT22;47278;49.732;7.690;2024-01-16T14:43:03;5.80;99.90
61412;DHT22;47278;49.732;7.690;2024-01-16T14:45:29;4.80;99.90
61412;DHT22;47278;49.732;7.690;2024-01-16T14:47:56;3.70;99.90
61412;DHT22;47278;49.732;7.690;2024-01-16T14:50:23;3.10;99.90
61412;DHT22;47278;49.732;7.690;2024-01-16T14:52:49;2.70;99.90
61412;DHT22;47278;49.732;7.690;2024-01-16T14:55:17;2.60;99.90
61412;DHT22;47278;49.732;7.690;2024-01-16T14:57:43;2.30;99.90
61412;DHT22;47278;49.732;7.690;2024-01-16T15:00:12;2.10;99.90
61412;DHT22;47278;49.732;7.690;2024-01-16T15:02:48;2.00;99.90
61412;DHT22;47278;49.732;7.690;2024-01-16T15:05:15;2.00;99.90
61412;DHT22;47278;49.732;7.690;2024-01-16T15:07:41;1.80;99.90
61412;DHT22;47278;49.732;7.690;2024-01-16T15:10:08;1.60;99.90
61412;DHT22;47278;49.732;7.690;2024-01-16T15:12:35;1.50;99.90
61412;DHT22;47278;49.732;7.690;2024-01-16T15:15:00;1.40;99.90
61412;DHT22;47278;49.732;7.690;2024-01-16T15:17:28;1.40;99.90
61412;DHT22;47278;49.732;7.690;2024-01-16T15:19:54;1.00;99.90
61412;DHT22;47278;49.732;7.690;2024-01-16T15:22:20;0.80;99.90
61412;DHT22;47278;49.732;7.690;2024-01-16T15:24:47;0.80;99.90
61412;DHT22;47278;49.732;7.690;2024-01-16T15:27:13;0.80;99.90
61412;DHT22;47278;49.732;7.690;2024-01-16T15:29:38;0.70;99.90
61412;DHT22;47278;49.732;7.690;2024-01-16T15:32:04;0.60;99.90
61412;DHT22;47278;49.732;7.690;2024-01-16T15:34:31;0.60;99.90
61412;DHT22;47278;49.732;7.690;2024-01-16T15:36:57;0.50;99.90
61412;DHT22;47278;49.732;7.690;2024-01-16T15:39:24;0.20;99.90
61412;DHT22;47278;49.732;7.690;2024-01-16T15:41:50;0.10;99.90
61412;DHT22;47278;49.732;7.690;2024-01-16T15:44:15;0.10;99.90
61412;DHT22;47278;49.732;7.690;2024-01-16T15:46:55;0.00;99.90
61412;DHT22;47278;49.732;7.690;2024-01-16T15:49:23;0.10;99.90